Glendora, CA (91740)

2:54 PM PDT on July 26, 2016 (GMT -0700)
Charter Oak | | Change Station

Elev 928 ft 34.12 °N, 117.85 °W | Updated 2 minutes ago

Clear
Clear
97.3 °F
Feels Like 100 °F
N
3.1
Wind Variable Wind from North
Gusts 7.5 mph

Today
High -- | Low -- °F
--% Chance of Precip.
Yesterday
High -- | Low -- °F
Precip. -- in
Pressure 29.90 in
Visibility 10.0 miles
Clouds Clear
Heat Index 100 °F
Dew Point 65 °F
Humidity 34%
Rainfall 0.00 in
Snow Depth Not available.
5:58 AM 7:56 PM
Waning Gibbous, 50% visible
METAR KPOC 262047Z 24011G16KT 10SM CLR 35/12 A2990
Pressure 29.90 in
Visibility 10.0 miles
Clouds Clear
Heat Index 100 °F
Dew Point 65 °F
Humidity 34%
Rainfall 0.00 in
Snow Depth Not available.
5:58 AM 7:56 PM
Waning Gibbous, 50% visible
METAR KPOC 262047Z 24011G16KT 10SM CLR 35/12 A2990

10-Day Weather Forecast

Almanac

Astronomy

Jul. 26, 2016 Rise Set
Actual Time
Civil Twilight
Nautical Twilight
Astronomical Twilight
Moon
Length of Visible Light
Length of Day
Tomorrow will be .
, % of the Moon is Illuminated

Today's Extremes

State Highs State Lows

Community

WunderPhotos

Upload Photos

1,927,702 photos uploaded!

WunderBlog® & News

Nearby

Air Quality

  Air Quality AQ Index Pollutant
Not available.

Snow Depth

Station Depth Elevation

Earthquake Activity

City Distance Mag. Time & Date
Minimum magnitude displayed is 2.5.

Coastal Water Temperatures

Place Temperature

Stations

Nearby Weather Stations

Station Location Temp. Windchill Dew Point Humidity Wind Precip. Elev Updated Type
                   

Watches & Warnings

There are currently no watches in effect.